Time;durP1;ratioP1;P1;durP2;ratioP2;P2;SDS_P1;SDS_P2;PMS_P1;PMS_P2;Temp;Humidity;BMP_temperature;BMP_pressure;BME280_temperature;BME280_humidity;BME280_pressure;Samples;Min_cycle;Max_cycle;Signal;HPM_P1;HPM_P2
2023/03/09 00:01:34;;;;;;;;;;;;;;;4.25;67.89;98927.53;5012517;28;19935;-67
2023/03/09 00:04:00;;;;;;;;;;;;;;;4.25;67.85;98924.88;5013217;28;20365;-68
2023/03/09 00:06:25;;;;;;;;;;;;;;;4.25;67.69;98924.06;5020552;28;19924;-67
2023/03/09 00:08:51;;;;;;;;;;;;;;;4.24;67.98;98925.13;5012757;28;20281;-68
2023/03/09 00:11:17;;;;;;;;;;;;;;;4.25;67.59;98934.75;5019168;28;19921;-67
2023/03/09 00:13:43;;;;;;;;;;;;;;;4.24;67.80;98954.53;5013057;28;20008;-67
2023/03/09 00:16:08;;;;;;;;;;;;;;;4.24;67.97;98963.34;5025907;28;19917;-66
2023/03/09 00:18:33;;;;;;;;;;;;;;;4.24;67.80;98968.69;5014886;28;19940;-65
2023/03/09 00:20:59;;;;;;;;;;;;;;;4.24;67.56;98978.59;5015477;28;20285;-66
2023/03/09 00:23:24;;;;;;;;;;;;;;;4.24;67.95;98984.72;5020048;28;19928;-67
2023/03/09 00:25:49;;;;;;;;;;;;;;;4.23;67.75;98977.75;5018642;28;19928;-70
2023/03/09 00:28:14;;;;;;;;;;;;;;;4.23;67.71;98988.44;5027927;28;19921;-73
2023/03/09 00:30:40;;;;;;;;;;;;;;;4.24;67.69;98983.94;5014914;28;20059;-66
2023/03/09 00:33:05;;;;;;;;;;;;;;;4.22;67.67;98996.72;5012525;28;19924;-67
2023/03/09 00:35:30;;;;;;;;;;;;;;;4.22;67.58;99000.19;5012163;28;19913;-69
2023/03/09 00:37:55;;;;;;;;;;;;;;;4.23;67.69;99011.69;5020064;28;20310;-67
2023/03/09 00:40:20;;;;;;;;;;;;;;;4.22;67.68;99018.91;5012876;28;19917;-67
2023/03/09 00:42:46;;;;;;;;;;;;;;;4.22;67.67;99004.75;5021657;28;19913;-67
2023/03/09 00:45:12;;;;;;;;;;;;;;;4.22;67.56;99004.75;5012650;28;19917;-66
2023/03/09 00:47:38;;;;;;;;;;;;;;;4.21;67.60;99001.25;5016012;28;20318;-67
2023/03/09 00:50:04;;;;;;;;;;;;;;;4.22;67.86;99023.44;5012521;28;19917;-66
2023/03/09 00:52:29;;;;;;;;;;;;;;;4.22;67.64;99042.16;5025483;28;19917;-65
2023/03/09 00:54:54;;;;;;;;;;;;;;;4.22;67.78;99061.66;5012758;28;20020;-68
2023/03/09 00:57:20;;;;;;;;;;;;;;;4.21;68.03;99060.06;5014638;28;20273;-67
2023/03/09 00:59:46;;;;;;;;;;;;;;;4.22;67.83;99076.91;5012409;28;19973;-68
2023/03/09 01:02:11;;;;;;;;;;;;;;;4.21;67.61;99070.75;5022923;28;20383;-67
2023/03/09 01:04:37;;;;;;;;;;;;;;;4.21;67.70;99065.41;5014171;28;19913;-68
2023/03/09 01:07:02;;;;;;;;;;;;;;;4.22;67.75;99050.19;5012427;28;19968;-66
2023/03/09 01:09:27;;;;;;;;;;;;;;;4.22;67.67;99059.00;5028437;28;19971;-66
2023/03/09 01:11:53;;;;;;;;;;;;;;;4.21;67.48;99054.72;5031592;28;19917;-66
2023/03/09 01:14:18;;;;;;;;;;;;;;;4.23;67.57;99070.50;5011490;28;19926;-70
2023/03/09 01:16:43;;;;;;;;;;;;;;;4.21;67.98;99091.28;5011985;28;20361;-66
2023/03/09 01:19:08;;;;;;;;;;;;;;;4.22;67.79;99098.28;5022662;28;19929;-67
2023/03/09 01:21:34;;;;;;;;;;;;;;;4.22;67.72;99099.09;5018553;28;19953;-66
2023/03/09 01:23:59;;;;;;;;;;;;;;;4.22;67.80;99106.28;5030947;28;19921;-66
2023/03/09 01:26:24;;;;;;;;;;;;;;;4.22;67.57;99098.28;5011756;28;19986;-68
2023/03/09 01:28:49;;;;;;;;;;;;;;;4.23;67.54;99107.91;5014684;28;19921;-67
2023/03/09 01:31:15;;;;;;;;;;;;;;;4.22;67.85;99096.41;5030656;28;20063;-67
2023/03/09 01:33:41;;;;;;;;;;;;;;;4.22;67.82;99091.06;5024789;28;19925;-66
2023/03/09 01:36:08;;;;;;;;;;;;;;;4.20;67.87;99087.81;5011892;28;20443;-66
2023/03/09 01:38:33;;;;;;;;;;;;;;;4.21;67.85;99108.16;5011732;28;19921;-66
2023/03/09 01:40:59;;;;;;;;;;;;;;;4.21;67.91;99116.19;5032118;28;19917;-65
2023/03/09 01:43:27;;;;;;;;;;;;;;;4.21;67.91;99124.19;5019994;28;19917;-66
2023/03/09 01:46:30;;;;;;;;;;;;;;;4.21;67.60;99123.38;5021327;28;19913;-65
2023/03/09 01:49:11;;;;;;;;;;;;;;;4.21;67.98;99121.53;4993721;28;19913;-65
2023/03/09 01:51:39;;;;;;;;;;;;;;;4.20;67.93;99116.41;4993991;28;19918;-66
2023/03/09 01:54:06;;;;;;;;;;;;;;;4.20;67.66;99125.22;5012656;28;19970;-66
2023/03/09 01:56:32;;;;;;;;;;;;;;;4.19;67.87;99128.97;5018741;28;19975;-65
2023/03/09 01:58:59;;;;;;;;;;;;;;;4.20;67.82;99132.44;5015112;28;20361;-66
2023/03/09 02:01:24;;;;;;;;;;;;;;;4.21;67.77;99136.72;5025617;28;20002;-66
2023/03/09 02:03:54;;;;;;;;;;;;;;;4.20;67.56;99130.56;5025966;28;20030;-69
2023/03/09 02:06:20;;;;;;;;;;;;;;;4.19;67.87;99128.97;5022164;28;19916;-65
2023/03/09 02:09:03;;;;;;;;;;;;;;;4.20;67.66;99141.28;5029116;28;19921;-66
2023/03/09 02:11:28;;;;;;;;;;;;;;;4.20;67.75;99138.59;5027655;28;19924;-65
2023/03/09 02:13:54;;;;;;;;;;;;;;;4.20;67.67;99137.78;5020467;28;19921;-67
2023/03/09 02:16:19;;;;;;;;;;;;;;;4.20;67.86;99127.09;5016574;28;19922;-65
2023/03/09 02:18:44;;;;;;;;;;;;;;;4.20;67.73;99133.25;5018996;28;20407;-65
2023/03/09 02:21:21;;;;;;;;;;;;;;;4.20;67.54;99140.47;5029548;28;19918;-67
2023/03/09 02:24:04;;;;;;;;;;;;;;;4.20;67.87;99159.16;5014654;28;19920;-68
2023/03/09 02:26:32;;;;;;;;;;;;;;;4.18;67.88;99162.06;5024387;28;19999;-66
2023/03/09 02:28:58;;;;;;;;;;;;;;;4.18;67.97;99172.75;5021789;28;19917;-66
2023/03/09 02:31:23;;;;;;;;;;;;;;;4.20;67.82;99172.53;5033302;28;19924;-66
2023/03/09 02:33:48;;;;;;;;;;;;;;;4.19;67.87;99165.56;5030977;28;20399;-66
2023/03/09 02:36:14;;;;;;;;;;;;;;;4.18;67.95;99167.41;5024550;28;20699;-66
2023/03/09 02:38:39;;;;;;;;;;;;;;;4.19;67.63;99157.56;5014365;28;20309;-67
2023/03/09 02:41:08;;;;;;;;;;;;;;;4.19;67.79;99162.91;5028472;28;20365;-68
2023/03/09 02:43:37;;;;;;;;;;;;;;;4.19;67.73;99162.91;5033694;28;19917;-67
2023/03/09 02:46:03;;;;;;;;;;;;;;;4.18;67.60;99145.22;5032083;28;19924;-66
2023/03/09 02:48:28;;;;;;;;;;;;;;;4.19;67.75;99155.69;5026859;28;19921;-67
2023/03/09 02:50:53;;;;;;;;;;;;;;;4.19;67.80;99154.88;5021800;28;19921;-66
2023/03/09 02:53:19;;;;;;;;;;;;;;;4.19;67.93;99155.69;5015903;28;20032;-66
2023/03/09 02:55:44;;;;;;;;;;;;;;;4.19;67.79;99153.03;5014813;28;20301;-66
2023/03/09 02:58:09;;;;;;;;;;;;;;;4.19;67.87;99158.38;5017086;28;19917;-67
2023/03/09 03:00:34;;;;;;;;;;;;;;;4.19;67.77;99166.38;5014268;28;20433;-66
2023/03/09 03:03:00;;;;;;;;;;;;;;;4.19;67.86;99165.56;5029999;28;19921;-66
2023/03/09 03:05:25;;;;;;;;;;;;;;;4.18;67.50;99172.75;5017486;28;19922;-65
2023/03/09 03:07:50;;;;;;;;;;;;;;;4.17;67.45;99168.47;5028787;28;19969;-67
2023/03/09 03:10:18;;;;;;;;;;;;;;;4.19;67.61;99165.56;5014224;28;20350;-67
2023/03/09 03:12:43;;;;;;;;;;;;;;;4.19;67.44;99169.06;5022085;28;19978;-66
2023/03/09 03:15:09;;;;;;;;;;;;;;;4.17;67.53;99159.66;5015103;28;20366;-65
2023/03/09 03:17:34;;;;;;;;;;;;;;;4.17;67.50;99165.81;5013400;28;19914;-66
2023/03/09 03:20:00;;;;;;;;;;;;;;;4.17;67.78;99183.72;5013805;28;20332;-66
2023/03/09 03:22:25;;;;;;;;;;;;;;;4.17;67.59;99187.19;5016477;28;19923;-65
2023/03/09 03:24:50;;;;;;;;;;;;;;;4.17;67.78;99195.19;5021657;28;19918;-66
2023/03/09 03:27:16;;;;;;;;;;;;;;;4.17;67.65;99197.88;5013688;28;20278;-66
2023/03/09 03:29:41;;;;;;;;;;;;;;;4.17;67.60;99215.78;5013152;28;20385;-67
2023/03/09 03:32:07;;;;;;;;;;;;;;;4.17;67.62;99234.47;5014017;28;20258;-69
2023/03/09 03:34:32;;;;;;;;;;;;;;;4.16;67.89;99233.69;5029626;28;19929;-66
2023/03/09 03:36:57;;;;;;;;;;;;;;;4.16;67.44;99225.66;5023102;28;19925;-65
2023/03/09 03:39:23;;;;;;;;;;;;;;;4.16;67.48;99223.00;5020038;28;19917;-66
2023/03/09 03:41:48;;;;;;;;;;;;;;;4.16;67.72;99216.81;5012401;28;20428;-66
2023/03/09 03:44:13;;;;;;;;;;;;;;;4.16;67.82;99232.84;5025701;28;20020;-65
2023/03/09 03:46:38;;;;;;;;;;;;;;;4.14;67.60;99235.78;5028929;28;20284;-66
2023/03/09 03:49:04;;;;;;;;;;;;;;;4.16;67.47;99238.19;5017491;28;19917;-65
2023/03/09 03:51:29;;;;;;;;;;;;;;;4.15;67.66;99234.72;5013628;28;20365;-68
2023/03/09 03:53:54;;;;;;;;;;;;;;;4.15;67.89;99232.03;5018270;28;20389;-66
2023/03/09 03:56:20;;;;;;;;;;;;;;;4.15;67.46;99239.25;5031148;28;19975;-66
2023/03/09 03:58:45;;;;;;;;;;;;;;;4.14;67.69;99233.09;5031382;28;19921;-65
2023/03/09 04:01:10;;;;;;;;;;;;;;;4.12;67.89;99241.34;5013991;28;19924;-65
2023/03/09 04:03:36;;;;;;;;;;;;;;;4.13;67.85;99258.19;5011432;28;19968;-69
2023/03/09 04:06:04;;;;;;;;;;;;;;;4.14;67.79;99251.00;5028724;28;19921;-66
2023/03/09 04:08:30;;;;;;;;;;;;;;;4.12;67.58;99254.69;5013338;28;19923;-66
2023/03/09 04:10:56;;;;;;;;;;;;;;;4.13;67.86;99250.16;5012937;28;20391;-68
2023/03/09 04:13:21;;;;;;;;;;;;;;;4.15;67.44;99249.94;5032054;28;19917;-65
2023/03/09 04:15:46;;;;;;;;;;;;;;;4.14;67.66;99254.47;5025379;28;19917;-66
2023/03/09 04:18:12;;;;;;;;;;;;;;;4.15;67.74;99265.97;5015677;28;20573;-65
2023/03/09 04:20:38;;;;;;;;;;;;;;;4.13;67.80;99274.22;5031761;28;19948;-65
2023/03/09 04:23:04;;;;;;;;;;;;;;;4.12;67.49;99277.94;5032257;28;19924;-66
2023/03/09 04:25:29;;;;;;;;;;;;;;;4.11;67.88;99279.81;5028812;28;20296;-65
2023/03/09 04:27:55;;;;;;;;;;;;;;;4.12;67.53;99283.28;5019922;28;19917;-65
2023/03/09 04:30:21;;;;;;;;;;;;;;;4.13;67.34;99279.56;5017861;28;19970;-66
2023/03/09 04:32:47;;;;;;;;;;;;;;;4.11;67.44;99289.69;5031726;28;19924;-66
2023/03/09 04:35:13;;;;;;;;;;;;;;;4.12;67.92;99296.66;5031772;28;19925;-66
2023/03/09 04:37:38;;;;;;;;;;;;;;;4.11;67.53;99290.50;5029342;28;20280;-66
2023/03/09 04:40:05;;;;;;;;;;;;;;;4.11;67.52;99292.38;5028883;28;19917;-65
2023/03/09 04:42:30;;;;;;;;;;;;;;;4.11;67.55;99292.38;5012555;28;20293;-65
2023/03/09 04:44:55;;;;;;;;;;;;;;;4.11;67.44;99293.16;5026726;28;19912;-65
2023/03/09 04:47:22;;;;;;;;;;;;;;;4.11;67.87;99298.53;5028117;28;19921;-66
2023/03/09 04:49:48;;;;;;;;;;;;;;;4.12;67.55;99299.31;5024298;28;19924;-65
2023/03/09 04:52:13;;;;;;;;;;;;;;;4.12;67.50;99318.84;5013640;28;19925;-66
2023/03/09 04:54:39;;;;;;;;;;;;;;;4.10;67.74;99322.78;5011741;28;19917;-70
2023/03/09 04:57:04;;;;;;;;;;;;;;;4.10;67.54;99325.47;5022126;28;20373;-65
2023/03/09 04:59:29;;;;;;;;;;;;;;;4.10;67.55;99331.63;5027726;28;20388;-65
2023/03/09 05:01:54;;;;;;;;;;;;;;;4.10;67.91;99346.84;5011650;28;20004;-67
2023/03/09 05:04:20;;;;;;;;;;;;;;;4.11;67.64;99340.47;5012133;28;19999;-65
2023/03/09 05:06:46;;;;;;;;;;;;;;;4.10;67.65;99346.84;5015856;28;19921;-65
2023/03/09 05:09:12;;;;;;;;;;;;;;;4.10;67.62;99346.84;5025188;28;19929;-64
2023/03/09 05:11:37;;;;;;;;;;;;;;;4.10;67.89;99350.31;5031660;28;20300;-68
2023/03/09 05:14:02;;;;;;;;;;;;;;;4.10;67.88;99341.50;5031739;28;19932;-65
2023/03/09 05:16:27;;;;;;;;;;;;;;;4.11;67.75;99343.13;5034937;28;19927;-66
2023/03/09 05:18:53;;;;;;;;;;;;;;;4.10;67.72;99349.50;5027381;28;20384;-65
2023/03/09 05:21:18;;;;;;;;;;;;;;;4.10;67.48;99358.34;5031855;28;20373;-66
2023/03/09 05:23:43;;;;;;;;;;;;;;;4.09;67.75;99372.75;5023618;28;19971;-65
2023/03/09 05:26:09;;;;;;;;;;;;;;;4.09;67.81;99367.41;5015977;28;19925;-65
2023/03/09 05:28:35;;;;;;;;;;;;;;;4.08;67.62;99365.81;5028286;28;19921;-66
2023/03/09 05:31:03;;;;;;;;;;;;;;;4.08;67.74;99352.44;5030969;28;20446;-66
2023/03/09 05:33:29;;;;;;;;;;;;;;;4.09;67.64;99347.91;5015962;28;20255;-65
2023/03/09 05:35:54;;;;;;;;;;;;;;;4.10;67.70;99344.97;5015705;28;20407;-66
2023/03/09 05:38:19;;;;;;;;;;;;;;;4.10;67.61;99360.19;5026772;28;19925;-66
2023/03/09 05:40:45;;;;;;;;;;;;;;;4.09;67.72;99371.94;5033430;28;19920;-64
2023/03/09 05:43:10;;;;;;;;;;;;;;;4.08;67.69;99376.50;5019324;28;19987;-66
2023/03/09 05:45:36;;;;;;;;;;;;;;;4.08;67.46;99373.81;5015635;28;19917;-65
2023/03/09 05:48:01;;;;;;;;;;;;;;;4.09;67.83;99375.44;5020308;28;19948;-66
2023/03/09 05:50:26;;;;;;;;;;;;;;;4.08;67.54;99368.47;5025903;28;19967;-65
2023/03/09 05:52:51;;;;;;;;;;;;;;;4.08;67.50;99379.16;5014956;28;19948;-65
2023/03/09 05:55:17;;;;;;;;;;;;;;;4.08;67.65;99381.00;5015358;28;19924;-65
2023/03/09 05:57:42;;;;;;;;;;;;;;;4.08;67.59;99381.00;5015499;28;19951;-70
2023/03/09 06:00:09;;;;;;;;;;;;;;;4.07;67.67;99390.88;5029448;28;19924;-67
2023/03/09 06:02:35;;;;;;;;;;;;;;;4.07;67.42;99379.38;5023023;28;19988;-64
2023/03/09 06:05:00;;;;;;;;;;;;;;;4.08;67.66;99389.00;5031983;28;20365;-65
2023/03/09 06:07:28;;;;;;;;;;;;;;;4.07;67.66;99398.09;5034916;28;19917;-65
2023/03/09 06:09:53;;;;;;;;;;;;;;;4.07;67.85;99398.09;5022173;28;19941;-65
2023/03/09 06:12:18;;;;;;;;;;;;;;;4.07;67.41;99412.25;5026080;28;20301;-66
2023/03/09 06:14:46;;;;;;;;;;;;;;;4.06;67.87;99405.28;5025453;28;19921;-71
2023/03/09 06:17:12;;;;;;;;;;;;;;;4.08;67.83;99410.38;5015649;28;19914;-65
2023/03/09 06:19:37;;;;;;;;;;;;;;;4.06;67.51;99409.84;5021861;28;19927;-65
2023/03/09 06:22:02;;;;;;;;;;;;;;;4.06;67.60;99423.19;5025946;28;20018;-65
2023/03/09 06:24:27;;;;;;;;;;;;;;;4.06;67.83;99431.22;5034259;28;19975;-65
2023/03/09 06:26:55;;;;;;;;;;;;;;;4.06;67.73;99425.88;5032657;28;19924;-65
2023/03/09 06:29:21;;;;;;;;;;;;;;;4.06;67.62;99431.22;5031081;28;19975;-67
2023/03/09 06:31:46;;;;;;;;;;;;;;;4.05;67.52;99434.91;5025909;28;20351;-70
2023/03/09 06:34:11;;;;;;;;;;;;;;;4.05;67.67;99427.69;5024424;28;20263;-65
2023/03/09 06:36:36;;;;;;;;;;;;;;;4.05;67.72;99434.91;5014788;28;20001;-65
2023/03/09 06:39:02;;;;;;;;;;;;;;;4.05;67.61;99449.06;5014297;28;19913;-65
2023/03/09 06:41:31;;;;;;;;;;;;;;;4.06;67.88;99460.59;5020198;28;19922;-65
2023/03/09 06:43:57;;;;;;;;;;;;;;;4.05;67.49;99453.63;5029767;28;19928;-65
2023/03/09 06:46:22;;;;;;;;;;;;;;;4.05;67.58;99446.41;5019920;28;19913;-66
2023/03/09 06:48:47;;;;;;;;;;;;;;;4.04;67.75;99452.81;5014623;28;19921;-70
2023/03/09 06:51:13;;;;;;;;;;;;;;;4.04;67.54;99468.84;5016803;28;19984;-65
2023/03/09 06:53:38;;;;;;;;;;;;;;;4.04;67.72;99487.53;5026306;28;20353;-64
2023/03/09 06:56:03;;;;;;;;;;;;;;;4.04;67.95;99492.06;5020410;28;19925;-66
2023/03/09 06:58:30;;;;;;;;;;;;;;;4.05;67.76;99493.69;5014459;28;19913;-65
2023/03/09 07:00:55;;;;;;;;;;;;;;;4.05;67.79;99491.03;5015327;28;19918;-75
2023/03/09 07:03:21;;;;;;;;;;;;;;;4.05;67.91;99507.06;5024688;28;19963;-65
2023/03/09 07:05:46;;;;;;;;;;;;;;;4.05;67.92;99507.06;5013909;28;19921;-65
2023/03/09 07:08:11;;;;;;;;;;;;;;;4.05;67.83;99505.19;5025832;28;20435;-64
2023/03/09 07:10:37;;;;;;;;;;;;;;;4.05;67.83;99520.41;5031676;28;20361;-65
2023/03/09 07:13:02;;;;;;;;;;;;;;;4.04;67.80;99522.28;5029655;28;19928;-66
2023/03/09 07:15:27;;;;;;;;;;;;;;;4.05;67.84;99520.41;5033144;28;19921;-65
2023/03/09 07:17:52;;;;;;;;;;;;;;;4.05;67.75;99526.56;5029875;28;20374;-66
2023/03/09 07:20:18;;;;;;;;;;;;;;;4.05;67.93;99529.25;5014390;28;19927;-66
2023/03/09 07:22:43;;;;;;;;;;;;;;;4.06;67.62;99530.09;5023986;28;19921;-65
2023/03/09 07:25:09;;;;;;;;;;;;;;;4.06;67.83;99527.41;5016966;28;19913;-65
2023/03/09 07:27:34;;;;;;;;;;;;;;;4.05;67.69;99537.25;5029247;28;20337;-65
2023/03/09 07:29:59;;;;;;;;;;;;;;;4.06;67.73;99548.78;5013713;28;20013;-64
2023/03/09 07:32:24;;;;;;;;;;;;;;;4.06;67.79;99548.78;5019070;28;20031;-65
2023/03/09 07:34:50;;;;;;;;;;;;;;;4.06;67.78;99565.63;5031672;28;19917;-65
2023/03/09 07:37:15;;;;;;;;;;;;;;;4.06;67.73;99565.63;5026321;28;19975;-65
2023/03/09 07:39:40;;;;;;;;;;;;;;;4.07;67.58;99574.44;5020179;28;20358;-65
2023/03/09 07:42:06;;;;;;;;;;;;;;;4.07;67.63;99563.75;5013601;28;19944;-65
2023/03/09 07:44:31;;;;;;;;;;;;;;;4.06;67.99;99567.50;5016729;28;20380;-68
2023/03/09 07:46:56;;;;;;;;;;;;;;;4.06;67.81;99562.16;5020162;28;19924;-65
2023/03/09 07:49:22;;;;;;;;;;;;;;;4.06;67.76;99567.50;5018480;28;19917;-66
2023/03/09 07:51:47;;;;;;;;;;;;;;;4.07;67.67;99566.44;5029295;28;19985;-65
2023/03/09 07:54:14;;;;;;;;;;;;;;;4.06;67.85;99570.97;5026196;28;19917;-64
2023/03/09 07:56:39;;;;;;;;;;;;;;;4.06;67.76;99565.63;5032903;28;19948;-66
2023/03/09 07:59:04;;;;;;;;;;;;;;;4.07;67.66;99577.94;5031472;28;19975;-65
2023/03/09 08:01:30;;;;;;;;;;;;;;;4.07;67.81;99604.66;5015088;28;19917;-65
2023/03/09 08:03:55;;;;;;;;;;;;;;;4.06;68.01;99608.38;5018795;28;19940;-65
2023/03/09 08:06:21;;;;;;;;;;;;;;;4.06;67.87;99603.03;5023577;28;20412;-65
2023/03/09 08:08:46;;;;;;;;;;;;;;;4.07;67.63;99601.97;5024071;28;19928;-66
2023/03/09 08:11:12;;;;;;;;;;;;;;;4.07;67.95;99609.19;5029346;28;20316;-66
2023/03/09 08:13:37;;;;;;;;;;;;;;;4.07;67.75;99609.19;5013903;28;19914;-65
2023/03/09 08:16:04;;;;;;;;;;;;;;;4.06;67.51;99608.38;5016212;28;19971;-64
2023/03/09 08:18:29;;;;;;;;;;;;;;;4.06;67.68;99603.03;5018287;28;19924;-66
2023/03/09 08:20:55;;;;;;;;;;;;;;;4.07;67.60;99610.00;5021393;28;19917;-68
2023/03/09 08:23:20;;;;;;;;;;;;;;;4.08;67.82;99605.47;5013135;28;20328;-65
2023/03/09 08:25:51;;;;;;;;;;;;;;;4.08;67.85;99622.34;5014170;28;20548;-68
2023/03/09 08:28:17;;;;;;;;;;;;;;;4.08;67.98;99625.00;5014001;28;19921;-64
2023/03/09 08:30:42;;;;;;;;;;;;;;;4.07;67.79;99623.34;5015320;28;19917;-65
2023/03/09 08:33:08;;;;;;;;;;;;;;;4.08;67.63;99625.00;5012577;28;19925;-64
2023/03/09 08:35:33;;;;;;;;;;;;;;;4.07;67.60;99628.69;5021855;28;19921;-65
2023/03/09 08:37:59;;;;;;;;;;;;;;;4.07;67.84;99641.25;5012657;28;20016;-64
2023/03/09 08:40:24;;;;;;;;;;;;;;;4.08;67.80;99653.56;5020011;28;19952;-65
2023/03/09 08:42:49;;;;;;;;;;;;;;;4.07;68.06;99655.44;5012729;28;19986;-65
2023/03/09 08:45:15;;;;;;;;;;;;;;;4.08;67.93;99661.59;5017604;28;19921;-65
2023/03/09 08:47:40;;;;;;;;;;;;;;;4.08;67.72;99659.75;5022401;28;19997;-64
2023/03/09 08:50:06;;;;;;;;;;;;;;;4.08;67.82;99665.09;5029046;28;19924;-66
2023/03/09 08:52:37;;;;;;;;;;;;;;;4.09;68.00;99669.38;5015105;28;20274;-65
2023/03/09 08:55:03;;;;;;;;;;;;;;;4.09;67.84;99669.38;5012515;28;19917;-65
2023/03/09 08:57:29;;;;;;;;;;;;;;;4.09;67.89;99677.41;5015900;28;19928;-66
2023/03/09 08:59:54;;;;;;;;;;;;;;;4.09;67.86;99677.41;5013609;28;20028;-66
2023/03/09 09:02:22;;;;;;;;;;;;;;;4.10;67.63;99684.38;5018489;28;19914;-64
2023/03/09 09:04:47;;;;;;;;;;;;;;;4.10;67.75;99678.22;5012627;28;19918;-64
2023/03/09 09:07:14;;;;;;;;;;;;;;;4.10;67.80;99678.22;5012488;28;20290;-65
2023/03/09 09:09:40;;;;;;;;;;;;;;;4.11;67.83;99675.31;5026886;28;20024;-64
2023/03/09 09:12:05;;;;;;;;;;;;;;;4.10;67.77;99660.31;5020934;28;19921;-66
2023/03/09 09:14:31;;;;;;;;;;;;;;;4.11;67.86;99672.66;5012238;28;19918;-65
2023/03/09 09:16:56;;;;;;;;;;;;;;;4.11;67.97;99672.66;5017527;28;19921;-64
2023/03/09 09:19:22;;;;;;;;;;;;;;;4.11;68.02;99669.97;5028410;28;20012;-63
2023/03/09 09:21:48;;;;;;;;;;;;;;;4.12;67.80;99665.44;5015971;28;19918;-65
2023/03/09 09:24:13;;;;;;;;;;;;;;;4.12;67.83;99670.78;5012252;28;19913;-65
2023/03/09 09:26:39;;;;;;;;;;;;;;;4.12;67.92;99689.50;5016389;28;19921;-69
2023/03/09 09:29:05;;;;;;;;;;;;;;;4.12;67.93;99692.16;5030029;28;20309;-65
2023/03/09 09:31:31;;;;;;;;;;;;;;;4.13;67.73;99693.78;5028508;28;19921;-63
2023/03/09 09:33:56;;;;;;;;;;;;;;;4.14;67.90;99686.59;5017131;28;19921;-64
2023/03/09 09:36:22;;;;;;;;;;;;;;;4.14;68.08;99684.75;5012037;28;20041;-64
2023/03/09 09:38:47;;;;;;;;;;;;;;;4.14;67.83;99700.78;5030452;28;19917;-65
2023/03/09 09:41:21;;;;;;;;;;;;;;;4.15;67.68;99707.75;5030094;28;19924;-65
2023/03/09 09:43:48;;;;;;;;;;;;;;;4.15;67.88;99713.09;5013876;28;20013;-65
2023/03/09 09:46:15;;;;;;;;;;;;;;;4.16;67.91;99698.69;5011827;28;19913;-64
2023/03/09 09:48:41;;;;;;;;;;;;;;;4.17;67.87;99697.66;5016182;28;20424;-64
2023/03/09 09:51:07;;;;;;;;;;;;;;;4.16;68.15;99698.69;5021279;28;19918;-66
2023/03/09 09:53:42;;;;;;;;;;;;;;;4.18;68.05;99693.13;5012488;28;19914;-65
2023/03/09 09:56:10;;;;;;;;;;;;;;;4.19;67.69;99689.41;5011874;28;19976;-65
2023/03/09 09:58:42;;;;;;;;;;;;;;;4.18;68.07;99704.63;5022556;28;19917;-65
2023/03/09 10:01:16;;;;;;;;;;;;;;;4.20;67.78;99705.22;5019642;28;20385;-66
2023/03/09 10:03:44;;;;;;;;;;;;;;;4.20;67.70;99704.41;5028639;28;19920;-65
2023/03/09 10:06:09;;;;;;;;;;;;;;;4.22;67.89;99705.00;5015210;28;19928;-65
2023/03/09 10:08:53;;;;;;;;;;;;;;;4.22;67.83;99703.13;5021503;28;19917;-64
2023/03/09 10:11:18;;;;;;;;;;;;;;;4.21;68.11;99714.88;5018664;28;19952;-64
2023/03/09 10:13:46;;;;;;;;;;;;;;;4.24;67.99;99716.28;5020691;28;19913;-65
2023/03/09 10:16:15;;;;;;;;;;;;;;;4.24;67.90;99709.06;5014713;28;20293;-66
2023/03/09 10:18:43;;;;;;;;;;;;;;;4.27;67.93;99702.47;5034380;28;19924;-66
2023/03/09 10:21:15;;;;;;;;;;;;;;;4.30;67.91;99707.34;5015200;28;19913;-65
2023/03/09 10:23:42;;;;;;;;;;;;;;;4.32;68.05;99700.72;5017032;28;19921;-63
2023/03/09 10:26:11;;;;;;;;;;;;;;;4.34;67.96;99695.97;5015313;28;19940;-64
2023/03/09 10:28:39;;;;;;;;;;;;;;;4.34;67.93;99693.31;5031405;28;20011;-65
2023/03/09 10:31:11;;;;;;;;;;;;;;;4.36;67.82;99698.44;5019686;28;19921;-68
2023/03/09 10:33:43;;;;;;;;;;;;;;;4.37;67.89;99705.41;5024536;28;20358;-64
2023/03/09 10:36:22;;;;;;;;;;;;;;;4.39;67.83;99714.00;5032908;28;19945;-64
2023/03/09 10:38:49;;;;;;;;;;;;;;;4.41;67.63;99711.09;5032920;28;19971;-64
2023/03/09 10:41:18;;;;;;;;;;;;;;;4.41;67.70;99698.56;5015823;28;20293;-65
2023/03/09 10:43:44;;;;;;;;;;;;;;;4.41;68.01;99700.41;5013522;28;19919;-65
2023/03/09 10:46:18;;;;;;;;;;;;;;;4.42;68.07;99696.69;5012961;28;20008;-64
2023/03/09 10:48:45;;;;;;;;;;;;;;;4.42;67.85;99691.34;5026616;28;19921;-64
2023/03/09 10:51:40;;;;;;;;;;;;;;;4.44;67.80;99700.78;5021477;28;19917;-65
2023/03/09 10:54:17;;;;;;;;;;;;;;;4.47;67.89;99702.19;5008049;28;19975;-64
2023/03/09 10:56:43;;;;;;;;;;;;;;;4.48;67.80;99706.47;5020918;28;19918;-66
2023/03/09 10:59:14;;;;;;;;;;;;;;;4.49;67.93;99703.59;5013131;28;19917;-66
2023/03/09 11:01:43;;;;;;;;;;;;;;;4.50;67.60;99704.38;5025265;28;19968;-66
2023/03/09 11:04:24;;;;;;;;;;;;;;;4.50;67.75;99699.03;5024603;28;19913;-67
2023/03/09 11:06:50;;;;;;;;;;;;;;;4.52;67.74;99700.44;5012947;28;19980;-66
2023/03/09 11:09:19;;;;;;;;;;;;;;;4.53;67.81;99702.06;5013011;28;20123;-65
2023/03/09 11:11:48;;;;;;;;;;;;;;;4.55;68.04;99694.63;5019921;28;19917;-65
2023/03/09 11:14:19;;;;;;;;;;;;;;;4.57;67.81;99693.59;5027017;28;19917;-65
2023/03/09 11:16:52;;;;;;;;;;;;;;;4.57;67.83;99691.75;5012950;28;19920;-65
2023/03/09 11:19:18;;;;;;;;;;;;;;;4.60;67.80;99698.50;5012670;28;20021;-65
2023/03/09 11:22:01;;;;;;;;;;;;;;;4.61;67.90;99700.09;5017655;28;20416;-66
2023/03/09 11:24:27;;;;;;;;;;;;;;;4.62;67.88;99704.44;5031541;28;19913;-65
2023/03/09 11:26:56;;;;;;;;;;;;;;;4.63;67.86;99700.69;5032052;28;19913;-66
2023/03/09 11:29:31;;;;;;;;;;;;;;;4.64;67.65;99694.31;5031263;28;19920;-67
2023/03/09 11:31:57;;;;;;;;;;;;;;;4.65;67.56;99685.25;5031264;28;19949;-66
2023/03/09 11:34:36;;;;;;;;;;;;;;;4.65;67.69;99691.41;5029391;28;19924;-65
2023/03/09 11:37:10;;;;;;;;;;;;;;;4.65;67.76;99702.09;5012548;28;19921;-66
2023/03/09 11:39:45;;;;;;;;;;;;;;;4.67;67.81;99700.03;5012840;28;19928;-66
2023/03/09 11:42:12;;;;;;;;;;;;;;;4.67;68.00;99702.69;5015007;28;19924;-66
2023/03/09 11:44:39;;;;;;;;;;;;;;;4.67;67.64;99700.03;5020022;28;20266;-65
2023/03/09 11:47:10;;;;;;;;;;;;;;;4.68;67.98;99698.97;5012130;28;19996;-65
2023/03/09 11:49:35;;;;;;;;;;;;;;;4.68;68.08;99693.63;5011957;28;20003;-66
2023/03/09 11:52:03;;;;;;;;;;;;;;;4.68;67.75;99693.63;5012254;28;19914;-67
2023/03/09 11:54:31;;;;;;;;;;;;;;;4.68;67.96;99688.25;5027266;28;19920;-65
2023/03/09 11:56:58;;;;;;;;;;;;;;;4.69;68.10;99700.63;5021123;28;20519;-65
2023/03/09 11:59:28;;;;;;;;;;;;;;;4.71;68.00;99685.16;5017263;28;20372;-65
2023/03/09 12:02:20;;;;;;;;;;;;;;;4.71;68.05;99689.66;5025239;28;19935;-65
2023/03/09 12:04:47;;;;;;;;;;;;;;;4.73;67.93;99687.56;5018044;28;19921;-66
2023/03/09 12:07:24;;;;;;;;;;;;;;;4.75;68.04;99688.97;5012284;28;19918;-65
2023/03/09 12:10:10;;;;;;;;;;;;;;;4.77;67.84;99678.88;5011519;28;19940;-66
2023/03/09 12:12:42;;;;;;;;;;;;;;;4.80;67.83;99679.47;5013383;28;19921;-65
2023/03/09 12:15:19;;;;;;;;;;;;;;;4.81;67.87;99660.47;5020597;28;19917;-66
2023/03/09 12:17:48;;;;;;;;;;;;;;;4.84;67.78;99664.56;5011366;28;19917;-68
2023/03/09 12:20:23;;;;;;;;;;;;;;;4.86;67.62;99665.94;5012316;28;19921;-70
2023/03/09 12:22:49;;;;;;;;;;;;;;;4.87;67.51;99658.75;5013379;28;19917;-65
2023/03/09 12:25:19;;;;;;;;;;;;;;;4.88;67.74;99647.00;5025348;28;20010;-69
2023/03/09 12:27:52;;;;;;;;;;;;;;;4.89;67.63;99644.09;5024477;28;19913;-66
2023/03/09 12:30:18;;;;;;;;;;;;;;;4.90;67.79;99645.72;5013014;28;20246;-66
2023/03/09 12:32:43;;;;;;;;;;;;;;;4.92;67.76;99637.47;5011203;28;19920;-67
2023/03/09 12:35:20;;;;;;;;;;;;;;;4.92;67.78;99634.78;5023553;28;19940;-68
2023/03/09 12:37:46;;;;;;;;;;;;;;;4.93;67.91;99639.09;5016345;28;19913;-68
2023/03/09 12:40:25;;;;;;;;;;;;;;;4.94;67.72;99627.34;5011452;28;20317;-67
2023/03/09 12:42:51;;;;;;;;;;;;;;;4.95;67.75;99623.63;5019452;28;20349;-66
2023/03/09 12:45:16;;;;;;;;;;;;;;;4.96;67.73;99618.06;5022085;28;20366;-71
2023/03/09 12:47:44;;;;;;;;;;;;;;;4.97;67.77;99616.19;5014850;28;19913;-65
2023/03/09 12:50:19;;;;;;;;;;;;;;;4.98;67.61;99605.22;5012051;28;20417;-65
2023/03/09 12:53:05;;;;;;;;;;;;;;;5.00;67.91;99596.97;5021400;28;20256;-67
2023/03/09 12:55:33;;;;;;;;;;;;;;;5.02;67.75;99602.09;5018659;28;19960;-67
2023/03/09 12:58:17;;;;;;;;;;;;;;;5.02;67.79;99604.78;5014165;28;20397;-66